createdAt,value
2022-09-12T00:01:37.207Z,13.24
2022-09-12T00:04:20.282Z,13.18
2022-09-12T00:07:03.248Z,13.14
2022-09-12T00:09:46.193Z,13.06
2022-09-12T00:12:30.430Z,13.02
2022-09-12T00:15:13.682Z,12.99
2022-09-12T00:17:56.648Z,12.98
2022-09-12T00:20:42.823Z,12.94
2022-09-12T00:23:25.795Z,12.95
2022-09-12T00:26:09.544Z,12.97
2022-09-12T00:28:54.167Z,12.96
2022-09-12T00:31:37.177Z,12.96
2022-09-12T00:34:20.111Z,12.95
2022-09-12T00:37:03.096Z,12.92
2022-09-12T00:39:46.102Z,12.90
2022-09-12T00:42:29.183Z,12.86
2022-09-12T00:45:24.306Z,12.86
2022-09-12T00:48:07.280Z,12.87
2022-09-12T00:50:51.337Z,12.85
2022-09-12T00:53:34.416Z,12.84
2022-09-12T00:56:20.457Z,12.85
2022-09-12T00:59:08.380Z,12.88
2022-09-12T01:01:53.688Z,12.90
2022-09-12T01:04:39.367Z,12.95
2022-09-12T01:07:22.839Z,12.98
2022-09-12T01:10:06.646Z,13.00
2022-09-12T01:12:49.907Z,12.99
2022-09-12T01:15:33.272Z,13.01
2022-09-12T01:18:25.815Z,13.02
2022-09-12T01:21:16.776Z,13.04
2022-09-12T01:24:37.991Z,13.04
2022-09-12T01:27:48.504Z,12.97
2022-09-12T01:30:49.202Z,12.93
2022-09-12T01:33:59.258Z,12.94
2022-09-12T01:36:51.412Z,12.96
2022-09-12T01:39:44.235Z,12.93
2022-09-12T01:42:35.194Z,12.89
2022-09-12T01:45:24.522Z,12.87
2022-09-12T01:48:14.104Z,12.84
2022-09-12T01:51:07.509Z,12.79
2022-09-12T01:53:54.962Z,12.70
2022-09-12T01:56:41.359Z,12.64
2022-09-12T01:59:30.468Z,12.58
2022-09-12T02:02:16.820Z,12.52
2022-09-12T02:05:06.943Z,12.48
2022-09-12T02:07:54.871Z,12.46
2022-09-12T02:10:45.117Z,12.42
2022-09-12T02:13:33.340Z,12.38
2022-09-12T02:16:20.200Z,12.36
2022-09-12T02:19:09.733Z,12.36
2022-09-12T02:21:56.759Z,12.34
2022-09-12T02:24:43.310Z,12.30
2022-09-12T02:27:33.611Z,12.26
2022-09-12T02:30:17.618Z,12.23
2022-09-12T02:33:06.046Z,12.18
2022-09-12T02:35:52.901Z,12.16
2022-09-12T02:38:45.286Z,12.13
2022-09-12T02:41:28.704Z,12.10
2022-09-12T02:44:11.785Z,12.10
2022-09-12T02:46:58.500Z,12.04
2022-09-12T02:49:41.440Z,11.97
2022-09-12T02:52:24.587Z,11.89
2022-09-12T02:55:11.618Z,11.85
2022-09-12T02:57:54.606Z,11.88
2022-09-12T03:00:46.580Z,11.86
2022-09-12T03:03:45.140Z,11.86
2022-09-12T03:06:36.520Z,11.86
2022-09-12T03:09:24.166Z,11.85
2022-09-12T03:12:26.504Z,11.82
2022-09-12T03:15:21.590Z,11.79
2022-09-12T03:18:07.404Z,11.76
2022-09-12T03:21:00.899Z,11.72
2022-09-12T03:23:52.664Z,11.69
2022-09-12T03:26:41.379Z,11.66
2022-09-12T03:29:27.413Z,11.65
2022-09-12T03:32:10.424Z,11.65
2022-09-12T03:34:53.416Z,11.57
2022-09-12T03:37:36.511Z,11.53
2022-09-12T03:40:20.041Z,11.50
2022-09-12T03:43:03.934Z,11.50
2022-09-12T03:45:51.372Z,11.46
2022-09-12T03:48:34.519Z,11.43
2022-09-12T03:51:17.832Z,11.38
2022-09-12T03:54:00.746Z,11.32
2022-09-12T03:56:43.702Z,11.23
2022-09-12T03:59:26.627Z,11.15
2022-09-12T04:02:13.106Z,11.09
2022-09-12T04:04:56.069Z,11.09
2022-09-12T04:07:38.994Z,11.08
2022-09-12T04:10:22.676Z,11.11
2022-09-12T04:13:05.783Z,11.12
2022-09-12T04:15:57.392Z,11.14
2022-09-12T04:18:41.972Z,11.15
2022-09-12T04:21:25.713Z,11.18
2022-09-12T04:24:08.687Z,11.20
2022-09-12T04:26:51.671Z,11.24
2022-09-12T04:29:35.680Z,11.27
2022-09-12T04:32:18.934Z,11.32
2022-09-12T04:35:03.284Z,11.38
2022-09-12T04:37:46.369Z,11.41
2022-09-12T04:40:31.489Z,11.41
2022-09-12T04:43:14.737Z,11.42
2022-09-12T04:45:58.464Z,11.41
2022-09-12T04:48:41.776Z,11.44
2022-09-12T04:51:28.146Z,11.45
2022-09-12T04:54:15.092Z,11.47
2022-09-12T04:56:58.140Z,11.50
2022-09-12T04:59:41.217Z,11.54
2022-09-12T05:02:24.189Z,11.58
2022-09-12T05:05:08.060Z,11.58
2022-09-12T05:07:52.381Z,11.57
2022-09-12T05:10:35.522Z,11.55
2022-09-12T05:13:18.498Z,11.53
2022-09-12T05:16:02.856Z,11.53
2022-09-12T05:18:47.324Z,11.53
2022-09-12T05:21:30.351Z,11.53
2022-09-12T05:24:14.720Z,11.58
2022-09-12T05:26:57.643Z,11.60
2022-09-12T05:29:40.596Z,11.63
2022-09-12T05:32:23.513Z,11.66
2022-09-12T05:35:06.808Z,11.67
2022-09-12T05:37:49.732Z,11.69
2022-09-12T05:40:35.084Z,11.72
2022-09-12T05:43:18.139Z,11.75
2022-09-12T05:46:05.394Z,11.80
2022-09-12T05:48:53.721Z,11.85
2022-09-12T05:51:40.960Z,11.88
2022-09-12T05:54:25.564Z,11.95
2022-09-12T05:57:12.763Z,11.99
2022-09-12T05:59:55.764Z,12.04
2022-09-12T06:02:38.721Z,12.09
2022-09-12T06:05:21.742Z,12.12
2022-09-12T06:08:04.711Z,12.15
2022-09-12T06:10:47.711Z,12.19
2022-09-12T06:13:34.544Z,12.23
2022-09-12T06:16:19.178Z,12.27
2022-09-12T06:19:03.823Z,12.31
2022-09-12T06:21:48.333Z,12.35
2022-09-12T06:24:31.279Z,12.39
2022-09-12T06:27:14.221Z,12.45
2022-09-12T06:29:59.503Z,12.50
2022-09-12T06:32:42.403Z,12.56
2022-09-12T06:35:25.390Z,12.63
2022-09-12T06:38:09.570Z,12.67
2022-09-12T06:40:52.453Z,12.71
2022-09-12T06:43:37.031Z,12.78
2022-09-12T06:46:21.844Z,12.83
2022-09-12T06:49:04.804Z,12.87
2022-09-12T06:51:47.782Z,12.91
2022-09-12T06:54:31.125Z,12.95
2022-09-12T06:57:14.032Z,12.99
2022-09-12T06:59:57.059Z,13.06
2022-09-12T07:02:41.790Z,13.13
2022-09-12T07:05:24.748Z,13.19
2022-09-12T07:08:07.711Z,13.27
2022-09-12T07:10:50.892Z,13.36
2022-09-12T07:13:33.906Z,13.44
2022-09-12T07:16:20.007Z,13.54
2022-09-12T07:19:06.299Z,13.61
2022-09-12T07:21:49.325Z,13.71
2022-09-12T07:24:32.290Z,13.78
2022-09-12T07:27:15.361Z,13.87
2022-09-12T07:29:58.494Z,13.96
2022-09-12T07:32:41.421Z,14.04
2022-09-12T07:35:25.881Z,14.11
2022-09-12T07:38:09.398Z,14.17
2022-09-12T07:40:52.312Z,14.21
2022-09-12T07:43:35.306Z,14.26
2022-09-12T07:46:18.489Z,14.31
2022-09-12T07:49:02.809Z,14.36
2022-09-12T07:51:47.122Z,14.39
2022-09-12T07:54:30.089Z,14.44
2022-09-12T07:57:13.031Z,14.47
2022-09-12T07:59:56.044Z,14.48
2022-09-12T08:02:39.025Z,14.50
2022-09-12T08:05:22.095Z,14.54
2022-09-12T08:08:06.325Z,14.58
2022-09-12T08:10:49.312Z,14.66
2022-09-12T08:13:32.710Z,14.68
2022-09-12T08:16:17.898Z,14.74
2022-09-12T08:19:02.276Z,14.79
2022-09-12T08:21:45.175Z,14.88
2022-09-12T08:24:29.575Z,14.95
2022-09-12T08:27:12.479Z,15.02
2022-09-12T08:29:55.597Z,15.10
2022-09-12T08:32:38.659Z,15.16
2022-09-12T08:35:21.634Z,15.24
2022-09-12T08:38:04.605Z,15.36
2022-09-12T08:40:55.250Z,15.50
2022-09-12T08:43:56.758Z,15.63
2022-09-12T08:46:47.093Z,15.75
2022-09-12T08:49:34.513Z,15.82
2022-09-12T08:52:23.029Z,15.86
2022-09-12T08:55:08.087Z,15.84
2022-09-12T08:57:53.037Z,15.85
2022-09-12T09:00:44.571Z,15.88
2022-09-12T09:03:55.300Z,15.97
2022-09-12T09:06:56.784Z,16.03
2022-09-12T09:09:49.291Z,16.04
2022-09-12T09:12:44.030Z,16.04
2022-09-12T09:15:41.268Z,16.06
2022-09-12T09:18:28.865Z,16.10
2022-09-12T09:21:22.859Z,16.17
2022-09-12T09:24:10.731Z,16.29
2022-09-12T09:26:59.004Z,16.43
2022-09-12T09:29:45.652Z,16.51
2022-09-12T09:32:36.093Z,16.54
2022-09-12T09:35:25.739Z,16.52
2022-09-12T09:38:19.936Z,16.49
2022-09-12T09:41:16.879Z,16.48
2022-09-12T09:44:00.671Z,16.47
2022-09-12T09:46:43.723Z,16.45
2022-09-12T09:49:31.057Z,16.44
2022-09-12T09:52:17.452Z,16.49
2022-09-12T09:55:02.004Z,16.52
2022-09-12T09:57:47.631Z,16.56
2022-09-12T10:00:33.238Z,16.88
2022-09-12T10:03:33.924Z,17.43
2022-09-12T10:06:34.525Z,17.79
2022-09-12T10:09:24.167Z,18.03
2022-09-12T10:12:23.055Z,18.31
2022-09-12T10:15:19.301Z,18.71
2022-09-12T10:18:03.104Z,19.11
2022-09-12T10:20:46.728Z,19.36
2022-09-12T10:23:36.133Z,19.61
2022-09-12T10:26:21.743Z,19.74
2022-09-12T10:29:13.856Z,19.67
2022-09-12T10:31:59.987Z,19.45
2022-09-12T10:34:45.087Z,19.18
2022-09-12T10:37:33.140Z,19.24
2022-09-12T10:40:25.338Z,19.34
2022-09-12T10:43:18.907Z,19.59
2022-09-12T10:46:25.076Z,19.83
2022-09-12T10:49:22.171Z,20.06
2022-09-12T10:52:19.123Z,20.33
2022-09-12T10:55:02.050Z,20.55
2022-09-12T10:58:02.126Z,20.77
2022-09-12T11:00:51.592Z,21.01
2022-09-12T11:06:36.320Z,21.39
2022-09-12T11:09:25.961Z,21.61
2022-09-12T11:12:16.424Z,21.85
2022-09-12T11:15:17.128Z,21.98
2022-09-12T11:18:10.140Z,22.09
2022-09-12T11:21:17.056Z,22.22
2022-09-12T11:24:16.355Z,22.34
2022-09-12T11:27:10.831Z,22.30
2022-09-12T11:29:58.745Z,22.30
2022-09-12T11:33:09.778Z,22.35
2022-09-12T11:35:57.343Z,22.44
2022-09-12T11:39:07.769Z,22.51
2022-09-12T11:41:57.027Z,22.59
2022-09-12T11:44:44.635Z,22.59
2022-09-12T11:47:30.809Z,22.59
2022-09-12T11:50:21.851Z,22.70
2022-09-12T11:53:16.347Z,22.79
2022-09-12T11:56:06.714Z,22.92
2022-09-12T11:58:56.698Z,23.03
2022-09-12T12:01:48.595Z,23.01
2022-09-12T12:04:40.643Z,23.19
2022-09-12T12:07:24.959Z,23.25
2022-09-12T12:10:09.328Z,23.37
2022-09-12T12:12:53.971Z,23.42
2022-09-12T12:15:37.783Z,23.42
2022-09-12T12:18:24.773Z,23.20
2022-09-12T12:21:32.593Z,22.85
2022-09-12T12:24:21.331Z,22.91
2022-09-12T12:27:05.952Z,22.92
2022-09-12T12:29:48.968Z,22.90
2022-09-12T12:32:31.924Z,22.67
2022-09-12T12:35:39.583Z,22.29
2022-09-12T12:38:30.894Z,21.93
2022-09-12T12:41:46.547Z,21.37
2022-09-12T12:44:47.346Z,21.01
2022-09-12T12:47:33.855Z,20.73
2022-09-12T12:50:26.164Z,20.44
2022-09-12T12:53:20.160Z,20.27
2022-09-12T12:56:03.918Z,20.18
2022-09-12T12:58:48.253Z,20.11
2022-09-12T13:01:32.648Z,20.10
2022-09-12T13:04:18.930Z,20.10
2022-09-12T13:07:08.406Z,20.10
2022-09-12T13:09:54.115Z,20.11
2022-09-12T13:12:45.359Z,20.09
2022-09-12T13:15:51.418Z,20.06
2022-09-12T13:18:44.254Z,20.17
2022-09-12T13:21:27.170Z,20.26
2022-09-12T13:24:15.917Z,20.34
2022-09-12T13:26:58.936Z,20.46
2022-09-12T13:29:42.362Z,20.56
2022-09-12T13:32:27.220Z,20.64
2022-09-12T13:35:22.583Z,20.92
2022-09-12T13:38:15.778Z,21.20
2022-09-12T13:41:18.472Z,21.37
2022-09-12T13:44:02.792Z,21.51
2022-09-12T13:46:46.311Z,21.54
2022-09-12T13:49:35.378Z,21.48
2022-09-12T13:52:22.322Z,20.99
2022-09-12T13:55:09.339Z,20.46
2022-09-12T13:57:58.139Z,20.15
2022-09-12T14:00:41.167Z,20.16
2022-09-12T14:03:45.699Z,20.36
2022-09-12T14:06:36.036Z,20.61
2022-09-12T14:09:25.425Z,20.66
2022-09-12T14:12:20.652Z,20.54
2022-09-12T14:15:04.157Z,20.55
2022-09-12T14:17:52.169Z,20.45
2022-09-12T14:20:39.443Z,20.38
2022-09-12T14:23:28.417Z,20.30
2022-09-12T14:26:13.654Z,20.32
2022-09-12T14:28:56.879Z,20.30
2022-09-12T14:31:41.313Z,20.32
2022-09-12T14:34:24.325Z,20.32
2022-09-12T14:37:08.531Z,20.37
2022-09-12T14:39:52.984Z,20.45
2022-09-12T14:42:35.889Z,20.47
2022-09-12T14:45:25.219Z,20.49
2022-09-12T14:48:20.222Z,20.49
2022-09-12T14:51:03.709Z,20.48
2022-09-12T14:53:49.885Z,20.49
2022-09-12T14:56:43.574Z,20.43
2022-09-12T14:59:32.470Z,20.41
2022-09-12T15:02:27.046Z,20.36
2022-09-12T15:05:28.363Z,20.31
2022-09-12T15:08:16.158Z,20.24
2022-09-12T15:10:59.846Z,20.19
2022-09-12T15:13:44.127Z,20.12
2022-09-12T15:16:27.020Z,20.11
2022-09-12T15:19:10.039Z,20.08
2022-09-12T15:21:53.643Z,20.05
2022-09-12T15:24:39.857Z,19.99
2022-09-12T15:27:24.005Z,19.91
2022-09-12T15:30:10.272Z,19.85
2022-09-12T15:32:53.379Z,19.77
2022-09-12T15:35:36.680Z,19.70
2022-09-12T15:38:23.129Z,19.66
2022-09-12T15:41:13.027Z,19.62
2022-09-12T15:43:56.822Z,19.50
2022-09-12T15:46:41.316Z,19.30
2022-09-12T15:49:24.371Z,19.11
2022-09-12T15:52:07.553Z,19.01
2022-09-12T15:54:50.464Z,18.86
2022-09-12T15:57:33.487Z,18.75
2022-09-12T16:00:18.800Z,18.62
2022-09-12T16:03:03.452Z,18.50
2022-09-12T16:05:46.375Z,18.44
2022-09-12T16:08:31.416Z,18.43
2022-09-12T16:11:19.950Z,18.37
2022-09-12T16:14:03.788Z,18.31
2022-09-12T16:16:53.361Z,18.22
2022-09-12T16:19:38.058Z,18.17
2022-09-12T16:22:20.828Z,18.09
2022-09-12T16:25:04.198Z,18.02
2022-09-12T16:27:47.317Z,17.98
2022-09-12T16:30:30.323Z,17.95
2022-09-12T16:33:13.344Z,17.89
2022-09-12T16:36:03.857Z,17.83
2022-09-12T16:38:48.290Z,17.77
2022-09-12T16:41:31.359Z,17.71
2022-09-12T16:44:14.405Z,17.60
2022-09-12T16:46:57.783Z,17.48
2022-09-12T16:49:40.705Z,17.37
2022-09-12T16:52:25.076Z,17.27
2022-09-12T16:55:08.912Z,17.16
2022-09-12T16:57:51.899Z,17.05
2022-09-12T17:00:34.855Z,16.95
2022-09-12T17:03:17.875Z,16.83
2022-09-12T17:06:01.464Z,16.70
2022-09-12T17:08:48.841Z,16.58
2022-09-12T17:11:34.133Z,16.47
2022-09-12T17:14:17.387Z,16.43
2022-09-12T17:17:00.391Z,16.40
2022-09-12T17:19:43.524Z,16.37
2022-09-12T17:22:26.467Z,16.35
2022-09-12T17:25:10.904Z,16.34
2022-09-12T17:27:53.818Z,16.30
2022-09-12T17:30:37.118Z,16.24
2022-09-12T17:33:20.369Z,16.19
2022-09-12T17:36:04.620Z,16.15
2022-09-12T17:38:48.162Z,16.11
2022-09-12T17:41:33.307Z,16.06
2022-09-12T17:44:16.964Z,16.01
2022-09-12T17:46:59.878Z,15.95
2022-09-12T17:49:42.780Z,15.91
2022-09-12T17:52:25.755Z,15.89
2022-09-12T17:55:09.128Z,15.86
2022-09-12T17:57:53.603Z,15.85
2022-09-12T18:00:50.536Z,15.79
2022-09-12T18:03:35.199Z,15.73
2022-09-12T18:06:18.328Z,15.67
2022-09-12T18:09:02.270Z,15.59
2022-09-12T18:11:45.434Z,15.54
2022-09-12T18:14:29.839Z,15.50
2022-09-12T18:17:12.827Z,15.46
2022-09-12T18:19:55.957Z,15.44
2022-09-12T18:22:38.953Z,15.42
2022-09-12T18:25:21.998Z,15.42
2022-09-12T18:28:09.258Z,15.34
2022-09-12T18:30:54.255Z,15.27
2022-09-12T18:33:37.981Z,15.30
2022-09-12T18:36:21.048Z,15.31
2022-09-12T18:39:04.016Z,15.30
2022-09-12T18:41:46.930Z,15.28
2022-09-12T18:44:30.052Z,15.22
2022-09-12T18:47:14.320Z,15.16
2022-09-12T18:49:57.240Z,15.07
2022-09-12T18:52:40.162Z,15.04
2022-09-12T18:55:23.804Z,14.96
2022-09-12T18:58:06.939Z,14.96
2022-09-12T19:00:49.895Z,14.88
2022-09-12T19:03:34.170Z,14.90
2022-09-12T19:06:18.880Z,14.83
2022-09-12T19:09:07.239Z,14.81
2022-09-12T19:11:52.581Z,14.82
2022-09-12T19:14:35.516Z,14.72
2022-09-12T19:17:19.518Z,14.73
2022-09-12T19:20:04.165Z,14.67
2022-09-12T19:22:47.204Z,14.65
2022-09-12T19:25:30.291Z,14.68
2022-09-12T19:28:13.353Z,14.70
2022-09-12T19:30:56.360Z,14.58
2022-09-12T19:33:40.072Z,14.63
2022-09-12T19:39:27.475Z,14.61
2022-09-12T19:42:10.421Z,14.64
2022-09-12T19:44:55.786Z,14.62
2022-09-12T19:47:38.708Z,14.66
2022-09-12T19:50:21.692Z,14.61
2022-09-12T19:53:06.466Z,14.56
2022-09-12T19:55:49.210Z,14.54
2022-09-12T19:58:33.632Z,14.48
2022-09-12T20:01:18.513Z,14.45
2022-09-12T20:04:01.499Z,14.40
2022-09-12T20:06:44.448Z,14.35
2022-09-12T20:09:28.800Z,14.32
2022-09-12T20:12:11.993Z,14.27
2022-09-12T20:14:54.968Z,14.22
2022-09-12T20:17:37.920Z,14.23
2022-09-12T20:20:20.971Z,14.17
2022-09-12T20:23:04.012Z,14.17
2022-09-12T20:25:48.948Z,14.17
2022-09-12T20:28:32.610Z,14.16
2022-09-12T20:31:17.093Z,14.17
2022-09-12T20:34:00.538Z,14.17
2022-09-12T20:36:43.640Z,14.14
2022-09-12T20:39:27.086Z,14.14
2022-09-12T20:42:11.391Z,14.09
2022-09-12T20:44:54.399Z,14.06
2022-09-12T20:47:37.314Z,14.02
2022-09-12T20:50:20.270Z,14.02
2022-09-12T20:53:03.224Z,14.00
2022-09-12T20:55:53.066Z,13.97
2022-09-12T20:58:40.497Z,13.97
2022-09-12T21:01:27.908Z,13.93
2022-09-12T21:04:14.785Z,13.88
2022-09-12T21:06:58.174Z,13.84
2022-09-12T21:09:41.199Z,13.78
2022-09-12T21:12:24.142Z,13.75
2022-09-12T21:15:10.254Z,13.73
2022-09-12T21:17:53.644Z,13.73
2022-09-12T21:20:36.656Z,13.72
2022-09-12T21:23:19.898Z,13.74
2022-09-12T21:26:03.956Z,13.72
2022-09-12T21:28:46.875Z,13.76
2022-09-12T21:31:31.348Z,13.74
2022-09-12T21:34:14.303Z,13.73
2022-09-12T21:36:57.275Z,13.71
2022-09-12T21:39:40.276Z,13.68
2022-09-12T21:42:23.288Z,13.65
2022-09-12T21:45:07.411Z,13.67
2022-09-12T21:47:51.788Z,13.66
2022-09-12T21:50:34.781Z,13.70
2022-09-12T21:53:17.807Z,13.68
2022-09-12T21:56:05.846Z,13.69
2022-09-12T21:58:48.789Z,13.65
2022-09-12T22:01:31.774Z,13.65
2022-09-12T22:04:16.386Z,13.59
2022-09-12T22:06:59.316Z,13.60
2022-09-12T22:09:42.259Z,13.59
2022-09-12T22:12:27.455Z,13.61
2022-09-12T22:15:36.389Z,13.52
2022-09-12T22:18:14.240Z,13.55
2022-09-12T22:21:03.727Z,13.46
2022-09-12T22:24:04.695Z,13.40
2022-09-12T22:26:47.758Z,13.38
2022-09-12T22:29:30.722Z,13.31
2022-09-12T22:32:13.665Z,13.32
2022-09-12T22:34:57.937Z,13.26
2022-09-12T22:37:42.422Z,13.16
2022-09-12T22:40:25.419Z,13.19
2022-09-12T22:43:08.895Z,13.16
2022-09-12T22:45:52.297Z,13.16
2022-09-12T22:48:35.540Z,13.13
2022-09-12T22:51:18.878Z,13.18
2022-09-12T22:54:03.391Z,13.24
2022-09-12T22:56:46.239Z,13.31
2022-09-12T22:59:29.196Z,13.33
2022-09-12T23:02:12.102Z,13.34
2022-09-12T23:04:55.095Z,13.31
2022-09-12T23:07:38.073Z,13.30
2022-09-12T23:10:22.946Z,13.30
2022-09-12T23:13:06.331Z,13.25
2022-09-12T23:15:49.809Z,13.24
2022-09-12T23:18:35.439Z,13.21
2022-09-12T23:21:20.328Z,13.18
2022-09-12T23:24:03.729Z,13.22
2022-09-12T23:26:48.152Z,13.25
2022-09-12T23:29:34.374Z,13.26
2022-09-12T23:32:17.656Z,13.20
2022-09-12T23:35:00.518Z,13.26
2022-09-12T23:37:43.622Z,13.25
2022-09-12T23:40:26.564Z,13.28
2022-09-12T23:43:10.823Z,13.22
2022-09-12T23:45:54.223Z,13.17
2022-09-12T23:48:37.370Z,13.20
2022-09-12T23:51:21.721Z,13.21
2022-09-12T23:54:04.773Z,13.12
2022-09-12T23:56:47.924Z,13.06
2022-09-12T23:59:32.288Z,13.06
